Time;durP1;ratioP1;P1;durP2;ratioP2;P2;SDS_P1;SDS_P2;PMS_P1;PMS_P2;Temp;Humidity;BMP_temperature;BMP_pressure;BME280_temperature;BME280_humidity;BME280_pressure;Samples;Min_cycle;Max_cycle;Signal;HPM_P1;HPM_P2
2022/10/11 00:00:39;;;;;;;9.10;2.08;;;7.00;99.90;;;;;;6240918;22;20031;-83
2022/10/11 00:03:05;;;;;;;8.20;1.63;;;7.00;99.90;;;;;;6240514;22;20564;-84
2022/10/11 00:05:32;;;;;;;16.67;2.40;;;7.20;99.90;;;;;;6238190;23;20023;-84
2022/10/11 00:07:58;;;;;;;12.38;1.45;;;7.20;99.90;;;;;;6240784;22;20027;-83
2022/10/11 00:10:23;;;;;;;10.48;2.67;;;6.90;99.90;;;;;;6240768;23;20453;-83
2022/10/11 00:12:51;;;;;;;12.35;2.17;;;6.90;99.90;;;;;;6240610;22;20044;-83
2022/10/11 00:15:20;;;;;;;11.48;1.88;;;6.90;99.90;;;;;;6240741;22;20023;-83
2022/10/11 00:17:46;;;;;;;12.65;2.10;;;6.90;99.90;;;;;;6241046;22;20384;-84
2022/10/11 00:20:12;;;;;;;11.18;2.15;;;6.90;99.90;;;;;;6239788;22;20083;-83
2022/10/11 00:22:39;;;;;;;10.38;2.03;;;6.90;99.90;;;;;;6240877;22;20012;-83
2022/10/11 00:25:07;;;;;;;13.07;1.90;;;6.80;99.90;;;;;;6238343;23;20464;-84
2022/10/11 00:27:34;;;;;;;13.02;2.03;;;6.80;99.90;;;;;;6240540;22;20008;-84
2022/10/11 00:30:00;;;;;;;10.90;2.17;;;6.80;99.90;;;;;;6238551;23;20345;-83
2022/10/11 00:32:26;;;;;;;11.52;1.73;;;6.80;99.90;;;;;;6240931;22;20337;-83
2022/10/11 00:34:52;;;;;;;9.02;2.20;;;6.80;99.90;;;;;;6237692;23;20015;-84
2022/10/11 00:37:18;;;;;;;9.13;1.80;;;6.80;99.90;;;;;;6238989;23;20012;-83
2022/10/11 00:39:44;;;;;;;12.98;2.17;;;6.80;99.90;;;;;;6240096;22;20020;-84
2022/10/11 00:42:12;;;;;;;10.88;1.90;;;6.80;99.90;;;;;;6239973;23;20016;-83
2022/10/11 00:44:41;;;;;;;14.30;1.83;;;6.70;99.90;;;;;;6241185;22;20418;-83
2022/10/11 00:47:11;;;;;;;9.88;1.77;;;6.70;99.90;;;;;;6240365;22;20433;-84
2022/10/11 00:49:44;;;;;;;8.88;1.77;;;6.70;99.90;;;;;;6240034;22;20008;-84
2022/10/11 00:52:19;;;;;;;10.73;2.03;;;6.70;99.90;;;;;;6240320;22;20012;-83
2022/10/11 00:54:46;;;;;;;10.70;1.73;;;6.60;99.90;;;;;;6238481;23;20078;-84
2022/10/11 00:57:17;;;;;;;10.48;2.35;;;6.70;99.90;;;;;;6241712;22;20091;-84
2022/10/11 00:59:47;;;;;;;11.52;1.80;;;6.70;99.90;;;;;;6241746;22;20012;-83
2022/10/11 01:02:13;;;;;;;8.15;1.85;;;6.60;99.90;;;;;;6239617;23;20013;-83
2022/10/11 01:04:40;;;;;;;9.23;1.83;;;6.60;99.90;;;;;;6240564;22;20065;-83
2022/10/11 01:07:06;;;;;;;8.98;1.88;;;6.60;99.90;;;;;;6241379;22;20016;-83
2022/10/11 01:09:32;;;;;;;10.60;1.58;;;6.50;99.90;;;;;;6241223;22;20012;-83
2022/10/11 01:12:01;;;;;;;8.23;1.65;;;6.50;99.90;;;;;;6240942;23;20467;-83
2022/10/11 01:14:30;;;;;;;10.15;1.60;;;6.50;99.90;;;;;;6241324;23;20016;-83
2022/10/11 01:17:18;;;;;;;7.57;1.98;;;6.50;99.90;;;;;;6241707;23;20336;-84
2022/10/11 01:20:12;;;;;;;13.18;1.73;;;6.50;99.90;;;;;;6242553;22;20016;-83
2022/10/11 01:23:01;;;;;;;10.15;1.52;;;6.50;99.90;;;;;;6241394;23;20070;-83
2022/10/11 01:25:39;;;;;;;10.95;1.90;;;6.40;99.90;;;;;;6243164;22;20063;-84
2022/10/11 01:28:12;;;;;;;11.40;1.50;;;6.40;99.90;;;;;;6242375;23;20020;-83
2022/10/11 01:30:38;;;;;;;9.50;1.80;;;6.40;99.90;;;;;;6241585;23;20418;-83
2022/10/11 01:33:34;;;;;;;8.98;1.55;;;6.40;99.90;;;;;;6242722;22;20108;-84
2022/10/11 01:36:15;;;;;;;13.77;1.95;;;6.40;99.90;;;;;;6241450;23;20457;-84
2022/10/11 01:38:50;;;;;;;9.73;1.58;;;6.40;99.90;;;;;;6241259;23;20070;-83
2022/10/11 01:41:22;;;;;;;10.82;1.60;;;6.30;99.90;;;;;;6241231;23;20024;-83
2022/10/11 01:43:52;;;;;;;12.88;2.13;;;6.30;99.90;;;;;;6243151;22;20012;-83
2022/10/11 01:46:19;;;;;;;11.68;2.03;;;6.30;99.90;;;;;;6242794;22;20088;-83
2022/10/11 01:48:53;;;;;;;7.55;1.60;;;6.30;99.90;;;;;;6242800;22;20012;-84
2022/10/11 01:51:21;;;;;;;9.88;1.85;;;6.30;99.90;;;;;;6215841;23;20023;-84
2022/10/11 01:54:01;;;;;;;13.48;1.50;;;6.30;99.90;;;;;;6241898;22;20044;-83
2022/10/11 01:56:53;;;;;;;10.20;2.00;;;6.30;99.90;;;;;;6242020;23;20323;-83
2022/10/11 01:59:30;;;;;;;9.32;1.90;;;6.30;99.90;;;;;;6226546;23;20012;-84
2022/10/11 02:02:17;;;;;;;11.60;1.60;;;6.30;99.90;;;;;;6242966;22;20019;-83
2022/10/11 02:04:56;;;;;;;8.02;1.85;;;6.30;99.90;;;;;;6240920;23;20012;-83
2022/10/11 02:07:37;;;;;;;19.23;1.80;;;6.20;99.90;;;;;;6242894;22;20200;-83
2022/10/11 02:10:14;;;;;;;7.20;1.90;;;6.20;99.90;;;;;;6242931;22;20039;-83
2022/10/11 02:12:47;;;;;;;12.52;1.92;;;6.20;99.90;;;;;;6243014;23;20016;-83
2022/10/11 02:15:16;;;;;;;6.80;1.38;;;6.20;99.90;;;;;;6242687;22;20098;-83
2022/10/11 02:17:50;;;;;;;9.80;1.90;;;6.10;99.90;;;;;;6239988;23;20091;-83
2022/10/11 02:20:20;;;;;;;6.55;1.80;;;6.10;99.90;;;;;;6242600;22;20020;-83
2022/10/11 02:22:50;;;;;;;10.82;1.58;;;6.10;99.90;;;;;;6242973;22;20013;-83
2022/10/11 02:25:27;;;;;;;9.35;1.52;;;6.00;99.90;;;;;;6240752;23;20020;-83
2022/10/11 02:27:57;;;;;;;13.00;1.70;;;6.00;99.90;;;;;;6242288;22;20071;-84
2022/10/11 02:30:23;;;;;;;7.85;1.52;;;6.00;99.90;;;;;;6241479;22;20079;-83
2022/10/11 02:32:51;;;;;;;9.00;1.77;;;6.00;99.90;;;;;;6240271;23;20046;-83
2022/10/11 02:35:18;;;;;;;9.35;1.42;;;6.00;99.90;;;;;;6242383;22;20131;-83
2022/10/11 02:37:54;;;;;;;11.10;2.50;;;6.00;99.90;;;;;;6215016;23;20455;-83
2022/10/11 02:40:27;;;;;;;10.23;1.75;;;6.00;99.90;;;;;;6240424;23;20016;-83
2022/10/11 02:43:02;;;;;;;13.07;1.40;;;6.00;99.90;;;;;;6242642;23;20108;-83
2022/10/11 02:45:36;;;;;;;9.00;1.77;;;6.00;99.90;;;;;;6242280;23;20310;-83
2022/10/11 02:48:03;;;;;;;6.40;1.77;;;6.00;99.90;;;;;;6240475;23;20406;-83
2022/10/11 02:50:29;;;;;;;7.95;1.70;;;5.90;99.90;;;;;;6242551;22;20377;-83
2022/10/11 02:52:54;;;;;;;9.70;2.00;;;5.90;99.90;;;;;;6242093;22;20069;-83
2022/10/11 02:55:20;;;;;;;8.55;1.40;;;5.90;99.90;;;;;;6241817;23;20012;-83
2022/10/11 02:57:46;;;;;;;6.88;1.33;;;5.80;99.90;;;;;;6242246;23;20024;-83
2022/10/11 03:00:12;;;;;;;11.85;2.03;;;5.80;99.90;;;;;;6240296;23;20046;-84
2022/10/11 03:02:38;;;;;;;6.90;1.35;;;5.80;99.90;;;;;;6240322;23;20533;-83
2022/10/11 03:05:04;;;;;;;9.98;1.33;;;5.80;99.90;;;;;;6241487;23;20016;-83
2022/10/11 03:07:29;;;;;;;15.60;2.17;;;5.80;99.90;;;;;;6242059;22;20093;-83
2022/10/11 03:09:55;;;;;;;10.63;1.58;;;5.70;99.90;;;;;;6240235;23;20020;-84
2022/10/11 03:12:20;;;;;;;8.02;1.35;;;5.80;99.90;;;;;;6242600;23;20136;-83
2022/10/11 03:14:46;;;;;;;7.75;1.48;;;5.70;99.90;;;;;;6241356;23;20441;-82
2022/10/11 03:17:12;;;;;;;6.25;1.45;;;5.70;99.90;;;;;;6242079;23;20015;-83
2022/10/11 03:19:37;;;;;;;7.82;1.52;;;5.70;99.90;;;;;;6242149;23;20505;-83
2022/10/11 03:22:03;;;;;;;9.68;1.40;;;5.70;99.90;;;;;;6242038;23;20008;-84
2022/10/11 03:24:28;;;;;;;12.98;2.50;;;5.60;99.90;;;;;;6242165;23;20012;-84
2022/10/11 03:26:54;;;;;;;9.73;1.48;;;5.70;99.90;;;;;;6242185;23;20012;-83
2022/10/11 03:29:19;;;;;;;10.82;1.33;;;5.60;99.90;;;;;;6240738;23;20020;-83
2022/10/11 03:31:46;;;;;;;6.25;1.75;;;5.60;99.90;;;;;;6241824;23;20083;-83
2022/10/11 03:34:11;;;;;;;11.32;1.63;;;5.60;99.90;;;;;;6242625;22;20019;-83
2022/10/11 03:36:37;;;;;;;10.10;1.50;;;5.60;99.90;;;;;;6241925;23;20012;-83
2022/10/11 03:39:02;;;;;;;11.65;1.67;;;5.60;99.90;;;;;;6239635;23;20069;-83
2022/10/11 03:41:29;;;;;;;6.70;1.30;;;5.60;99.90;;;;;;6241630;23;20016;-83
2022/10/11 03:43:55;;;;;;;10.52;1.45;;;5.60;99.90;;;;;;6238899;23;20119;-83
2022/10/11 03:46:20;;;;;;;7.03;1.67;;;5.60;99.90;;;;;;6241722;22;20055;-83
2022/10/11 03:48:46;;;;;;;9.70;1.42;;;5.60;99.90;;;;;;6241522;22;20625;-84
2022/10/11 03:51:12;;;;;;;8.63;1.27;;;5.50;99.90;;;;;;6241937;23;20015;-84
2022/10/11 03:53:38;;;;;;;7.55;1.40;;;5.50;99.90;;;;;;6241840;23;20441;-83
2022/10/11 03:56:04;;;;;;;8.85;1.20;;;5.50;99.90;;;;;;6239594;23;20353;-83
2022/10/11 03:58:30;;;;;;;6.82;1.17;;;5.50;99.90;;;;;;6239209;23;20020;-83
2022/10/11 04:00:55;;;;;;;9.75;1.40;;;5.50;99.90;;;;;;6240140;23;20027;-83
2022/10/11 04:03:21;;;;;;;10.45;1.90;;;5.50;99.90;;;;;;6239599;23;20012;-83
2022/10/11 04:05:47;;;;;;;8.30;1.13;;;5.50;99.90;;;;;;6241474;22;20451;-83
2022/10/11 04:08:13;;;;;;;8.65;1.80;;;5.50;99.90;;;;;;6241492;23;20036;-83
2022/10/11 04:10:38;;;;;;;10.77;1.42;;;5.50;99.90;;;;;;6241261;23;20004;-83
2022/10/11 04:13:04;;;;;;;9.05;1.45;;;5.50;99.90;;;;;;6240851;22;20062;-83
2022/10/11 04:15:30;;;;;;;4.65;1.35;;;5.50;99.90;;;;;;6241729;22;20039;-83
2022/10/11 04:17:56;;;;;;;8.02;1.27;;;5.60;99.90;;;;;;6241010;22;20018;-83
2022/10/11 04:20:22;;;;;;;12.13;2.13;;;5.50;99.90;;;;;;6239552;23;20019;-83
2022/10/11 04:22:47;;;;;;;13.00;1.80;;;5.60;99.90;;;;;;6241442;22;20019;-83
2022/10/11 04:25:13;;;;;;;9.20;1.40;;;5.60;99.90;;;;;;6239476;23;20020;-83
2022/10/11 04:27:39;;;;;;;6.13;1.20;;;5.60;99.90;;;;;;6240454;23;20008;-83
2022/10/11 04:30:05;;;;;;;6.88;1.48;;;5.60;99.90;;;;;;6240720;23;20023;-83
2022/10/11 04:32:31;;;;;;;8.55;1.60;;;5.60;99.90;;;;;;6239720;23;20012;-83
2022/10/11 04:34:57;;;;;;;12.50;2.20;;;5.60;99.90;;;;;;6214024;23;20017;-83
2022/10/11 04:37:22;;;;;;;11.48;1.70;;;5.60;99.90;;;;;;6241139;23;20019;-83
2022/10/11 04:39:48;;;;;;;7.70;1.52;;;5.70;99.90;;;;;;6239116;23;20008;-83
2022/10/11 04:42:14;;;;;;;8.90;1.80;;;5.70;99.90;;;;;;6238754;23;20083;-83
2022/10/11 04:44:39;;;;;;;16.00;1.85;;;5.80;99.90;;;;;;6241840;22;20015;-84
2022/10/11 04:47:05;;;;;;;8.80;1.45;;;5.80;99.90;;;;;;6241339;23;20469;-83
2022/10/11 04:49:30;;;;;;;16.80;1.90;;;5.80;99.90;;;;;;6240734;23;20004;-83
2022/10/11 04:51:56;;;;;;;10.45;1.33;;;5.70;99.90;;;;;;6239853;23;20055;-83
2022/10/11 04:54:22;;;;;;;7.68;1.35;;;5.70;99.90;;;;;;6243156;23;20012;-83
2022/10/11 04:56:47;;;;;;;11.38;1.70;;;5.70;99.90;;;;;;6242768;22;20020;-83
2022/10/11 04:59:13;;;;;;;10.00;1.70;;;5.70;99.90;;;;;;6243713;23;20008;-83
2022/10/11 05:01:38;;;;;;;12.55;2.33;;;5.70;99.90;;;;;;6243911;23;20405;-83
2022/10/11 05:04:04;;;;;;;14.88;1.80;;;5.80;99.90;;;;;;6242581;23;20066;-83
2022/10/11 05:06:30;;;;;;;8.02;1.48;;;5.80;99.90;;;;;;6242094;23;20429;-83
2022/10/11 05:08:56;;;;;;;9.55;1.55;;;5.80;99.90;;;;;;6241956;23;20067;-83
2022/10/11 05:11:21;;;;;;;13.75;1.75;;;5.80;99.90;;;;;;6242070;23;20012;-84
2022/10/11 05:13:47;;;;;;;10.10;1.40;;;5.80;99.90;;;;;;6242159;23;20012;-81
2022/10/11 05:16:13;;;;;;;9.18;1.80;;;5.80;99.90;;;;;;6244440;23;20016;-81
2022/10/11 05:18:39;;;;;;;10.40;1.42;;;5.80;99.90;;;;;;6244375;22;20035;-82
2022/10/11 05:21:07;;;;;;;7.68;1.67;;;5.80;99.90;;;;;;6243927;23;20044;-82
2022/10/11 05:23:35;;;;;;;10.65;1.98;;;5.80;99.90;;;;;;6243440;22;20066;-82
2022/10/11 05:26:02;;;;;;;9.27;1.83;;;5.80;99.90;;;;;;6243197;22;20012;-83
2022/10/11 05:28:27;;;;;;;13.70;2.30;;;5.80;99.90;;;;;;6241978;23;20099;-83
2022/10/11 05:30:54;;;;;;;9.38;1.23;;;5.80;99.90;;;;;;6242185;23;20386;-84
2022/10/11 05:33:20;;;;;;;8.65;1.45;;;5.80;99.90;;;;;;6241811;23;20012;-82
2022/10/11 05:35:46;;;;;;;10.52;1.38;;;5.80;99.90;;;;;;6242191;22;20046;-84
2022/10/11 05:38:12;;;;;;;13.80;2.20;;;5.70;99.90;;;;;;6243823;22;20384;-83
2022/10/11 05:40:38;;;;;;;9.57;1.55;;;5.80;99.90;;;;;;6216128;23;20445;-83
2022/10/11 05:43:05;;;;;;;8.13;1.60;;;5.80;99.90;;;;;;6243574;22;20078;-83
2022/10/11 05:45:34;;;;;;;9.25;1.65;;;5.80;99.90;;;;;;6242305;23;20051;-84
2022/10/11 05:47:59;;;;;;;16.15;1.90;;;5.90;99.90;;;;;;6242351;23;20010;-83
2022/10/11 05:50:25;;;;;;;6.47;1.67;;;5.90;99.90;;;;;;6242166;23;20072;-85
2022/10/11 05:52:50;;;;;;;14.38;2.08;;;5.90;99.90;;;;;;6218979;23;20040;-87
2022/10/11 05:55:16;;;;;;;8.85;1.42;;;5.90;99.90;;;;;;6244229;23;20434;-92
2022/10/11 05:57:43;;;;;;;7.93;1.30;;;5.90;99.90;;;;;;6243434;23;20071;-87
2022/10/11 06:00:09;;;;;;;7.88;1.58;;;6.10;99.90;;;;;;6247737;22;20016;-88
2022/10/11 06:02:35;;;;;;;8.35;1.42;;;5.90;99.90;;;;;;6220405;23;20066;-88
2022/10/11 06:05:00;;;;;;;13.45;1.80;;;5.90;99.90;;;;;;6245273;23;20012;-88
2022/10/11 06:07:26;;;;;;;8.82;1.73;;;5.90;99.90;;;;;;6245948;22;20016;-86
2022/10/11 06:09:52;;;;;;;8.07;1.70;;;5.90;99.90;;;;;;6219345;23;20437;-86
2022/10/11 06:12:17;;;;;;;10.18;1.48;;;5.90;99.90;;;;;;6216673;23;20008;-86
2022/10/11 06:14:43;;;;;;;10.35;1.40;;;5.90;99.90;;;;;;6242060;23;20008;-85
2022/10/11 06:17:09;;;;;;;9.43;1.73;;;5.90;99.90;;;;;;6242123;23;20016;-85
2022/10/11 06:19:34;;;;;;;7.90;1.42;;;5.90;99.90;;;;;;6241830;23;20500;-85
2022/10/11 06:22:00;;;;;;;10.63;1.80;;;5.90;99.90;;;;;;6216281;23;20737;-85
2022/10/11 06:24:26;;;;;;;10.60;1.73;;;5.90;99.90;;;;;;6241561;23;20342;-86
2022/10/11 06:26:52;;;;;;;8.13;1.90;;;5.90;99.90;;;;;;6242585;23;20016;-86
2022/10/11 06:29:17;;;;;;;9.43;1.73;;;5.90;99.90;;;;;;6244901;22;20008;-87
2022/10/11 06:31:43;;;;;;;6.22;1.25;;;5.90;99.90;;;;;;6217599;23;20034;-86
2022/10/11 06:34:09;;;;;;;11.23;1.98;;;5.90;99.90;;;;;;6243105;23;20012;-85
2022/10/11 06:36:35;;;;;;;8.32;2.05;;;5.90;99.90;;;;;;6244471;22;20012;-86
2022/10/11 06:39:01;;;;;;;10.18;1.52;;;5.80;99.90;;;;;;6242155;23;20342;-85
2022/10/11 06:41:29;;;;;;;11.73;1.73;;;5.90;99.90;;;;;;6241612;23;20015;-85
2022/10/11 06:43:55;;;;;;;6.57;1.55;;;5.90;99.90;;;;;;6240981;23;20047;-85
2022/10/11 06:46:22;;;;;;;9.65;1.63;;;5.90;99.90;;;;;;6242533;22;20019;-85
2022/10/11 06:48:49;;;;;;;7.20;1.42;;;5.90;99.90;;;;;;6243454;22;20062;-86
2022/10/11 06:51:17;;;;;;;9.32;1.75;;;5.90;99.90;;;;;;6240891;23;20091;-85
2022/10/11 06:53:47;;;;;;;7.70;1.40;;;6.00;99.90;;;;;;6241255;23;20016;-85
2022/10/11 06:56:12;;;;;;;13.65;1.80;;;6.00;99.90;;;;;;6215246;23;20016;-85
2022/10/11 06:58:39;;;;;;;7.50;1.83;;;6.00;99.90;;;;;;6241423;23;20016;-85
2022/10/11 07:01:06;;;;;;;8.25;1.73;;;6.10;99.90;;;;;;6215834;23;20008;-85
2022/10/11 07:03:32;;;;;;;9.82;1.90;;;6.10;99.90;;;;;;6243001;22;20043;-85
2022/10/11 07:06:00;;;;;;;8.95;1.73;;;6.10;99.90;;;;;;6215641;23;20345;-85
2022/10/11 07:08:26;;;;;;;11.55;1.77;;;6.20;99.90;;;;;;6214902;23;20020;-85
2022/10/11 07:10:52;;;;;;;13.13;1.90;;;6.20;99.90;;;;;;6240423;23;20008;-84
2022/10/11 07:13:17;;;;;;;14.45;1.92;;;6.20;99.90;;;;;;6215231;23;20078;-85
2022/10/11 07:15:43;;;;;;;7.65;1.60;;;6.30;99.90;;;;;;6240136;23;20330;-85
2022/10/11 07:18:08;;;;;;;9.35;2.30;;;6.30;99.90;;;;;;6215628;23;20330;-85
2022/10/11 07:20:34;;;;;;;17.42;2.88;;;6.40;99.90;;;;;;6241797;23;20091;-87
2022/10/11 07:23:00;;;;;;;17.42;2.30;;;6.40;99.90;;;;;;6240670;23;20090;-85
2022/10/11 07:25:26;;;;;;;12.60;2.42;;;6.40;99.90;;;;;;6239936;23;20413;-85
2022/10/11 07:27:51;;;;;;;7.72;1.88;;;6.50;99.90;;;;;;6241860;23;20307;-85
2022/10/11 07:30:17;;;;;;;11.80;2.08;;;6.50;99.90;;;;;;6241400;23;20015;-85
2022/10/11 07:32:42;;;;;;;10.98;2.08;;;6.50;99.90;;;;;;6241963;23;20015;-85
2022/10/11 07:35:08;;;;;;;11.48;2.08;;;6.60;99.90;;;;;;6241132;23;20012;-85
2022/10/11 07:37:33;;;;;;;12.05;2.92;;;6.60;99.90;;;;;;6241511;23;20005;-85
2022/10/11 07:40:00;;;;;;;12.57;2.35;;;6.70;99.90;;;;;;6239430;23;20012;-85
2022/10/11 07:42:25;;;;;;;15.85;2.63;;;6.70;99.90;;;;;;6241306;23;20024;-85
2022/10/11 07:44:51;;;;;;;14.90;2.30;;;6.80;99.90;;;;;;6241616;23;20009;-85
2022/10/11 07:47:16;;;;;;;12.00;2.50;;;6.90;99.90;;;;;;6241448;23;20087;-85
2022/10/11 07:49:42;;;;;;;13.63;2.50;;;7.00;99.90;;;;;;6240973;23;20015;-85
2022/10/11 07:52:07;;;;;;;12.13;2.40;;;7.00;99.90;;;;;;6240533;23;20012;-85
2022/10/11 07:54:33;;;;;;;16.45;3.00;;;7.10;99.90;;;;;;6239629;23;20454;-85
2022/10/11 07:56:58;;;;;;;16.98;2.90;;;7.10;99.90;;;;;;6240684;22;20020;-85
2022/10/11 07:59:24;;;;;;;12.85;2.70;;;7.20;99.90;;;;;;6241605;23;20100;-85
2022/10/11 08:01:50;;;;;;;17.73;3.78;;;7.30;99.90;;;;;;6241203;23;20070;-84
2022/10/11 08:04:15;;;;;;;13.65;3.65;;;7.40;99.90;;;;;;6240492;23;20023;-85
2022/10/11 08:06:41;;;;;;;12.57;3.25;;;7.40;99.90;;;;;;6241381;23;20008;-85
2022/10/11 08:09:06;;;;;;;14.65;3.92;;;7.50;99.90;;;;;;6241279;22;20012;-85
2022/10/11 08:11:35;;;;;;;12.40;2.67;;;7.50;99.90;;;;;;6239388;23;20019;-84
2022/10/11 08:14:05;;;;;;;7.57;2.08;;;7.60;99.90;;;;;;6239983;23;20109;-85
2022/10/11 08:16:31;;;;;;;16.02;3.05;;;7.70;99.90;;;;;;6241811;22;20464;-84
2022/10/11 08:18:56;;;;;;;17.27;2.40;;;7.70;99.90;;;;;;6239244;23;20012;-84
2022/10/11 08:21:22;;;;;;;14.10;2.33;;;7.80;99.90;;;;;;6241123;22;20079;-85
2022/10/11 08:23:48;;;;;;;15.30;2.03;;;7.90;99.90;;;;;;6241475;22;20497;-85
2022/10/11 08:26:14;;;;;;;13.45;1.95;;;8.00;99.90;;;;;;6240910;23;20012;-85
2022/10/11 08:28:39;;;;;;;12.05;2.20;;;8.10;99.90;;;;;;6241262;22;20048;-85
2022/10/11 08:31:05;;;;;;;16.42;2.25;;;8.20;99.90;;;;;;6241202;23;20028;-85
2022/10/11 08:33:31;;;;;;;14.90;1.98;;;8.30;99.90;;;;;;6240273;23;20023;-86
2022/10/11 08:35:57;;;;;;;12.82;2.92;;;8.40;99.90;;;;;;6239474;23;20016;-84
2022/10/11 08:38:23;;;;;;;11.60;1.92;;;8.50;99.90;;;;;;6240575;22;20012;-85
2022/10/11 08:40:54;;;;;;;16.90;1.40;;;8.60;99.90;;;;;;6240978;23;20019;-84
2022/10/11 08:43:44;;;;;;;13.30;1.83;;;8.70;99.90;;;;;;6240591;22;20058;-85
2022/10/11 08:46:12;;;;;;;12.00;1.92;;;8.80;99.90;;;;;;6240577;22;20520;-85
2022/10/11 08:48:43;;;;;;;13.02;1.60;;;8.90;99.90;;;;;;6240640;22;20461;-85
2022/10/11 08:51:24;;;;;;;17.90;2.28;;;9.00;99.90;;;;;;6241362;22;20012;-85
2022/10/11 08:53:56;;;;;;;18.08;2.45;;;9.10;99.90;;;;;;6241137;22;20012;-85
2022/10/11 08:56:24;;;;;;;16.20;1.63;;;9.10;99.90;;;;;;6240486;22;20035;-85
2022/10/11 08:59:12;;;;;;;16.00;1.67;;;9.20;99.90;;;;;;6241634;22;20233;-84
2022/10/11 09:01:48;;;;;;;17.10;2.67;;;9.30;99.90;;;;;;6241565;22;20342;-84
2022/10/11 09:04:16;;;;;;;16.60;1.88;;;9.40;99.90;;;;;;6241407;22;20016;-85
2022/10/11 09:07:04;;;;;;;14.15;1.88;;;9.60;99.90;;;;;;6241012;22;20083;-85
2022/10/11 09:09:55;;;;;;;11.20;1.40;;;9.70;99.90;;;;;;6219725;23;20031;-85
2022/10/11 09:13:00;;;;;;;15.57;2.15;;;9.90;99.90;;;;;;6240724;23;20057;-85
2022/10/11 09:16:01;;;;;;;11.00;1.92;;;10.00;99.90;;;;;;6213373;23;20020;-84
2022/10/11 09:18:46;;;;;;;10.55;1.60;;;10.20;99.90;;;;;;6234818;23;20449;-84
2022/10/11 09:21:29;;;;;;;17.40;1.88;;;10.80;99.90;;;;;;6241439;22;20249;-84
2022/10/11 09:24:22;;;;;;;7.43;1.30;;;10.80;99.90;;;;;;6241161;23;20036;-84
2022/10/11 09:26:51;;;;;;;18.33;2.30;;;10.90;99.90;;;;;;6214201;23;20020;-84
2022/10/11 09:29:36;;;;;;;12.88;1.95;;;11.10;99.90;;;;;;6241175;23;20019;-84
2022/10/11 09:32:07;;;;;;;11.48;2.22;;;11.30;99.90;;;;;;6238598;23;20008;-84
2022/10/11 09:34:36;;;;;;;16.50;1.80;;;11.40;99.90;;;;;;6241216;22;20012;-84
2022/10/11 09:37:31;;;;;;;12.70;2.20;;;11.60;99.90;;;;;;6241096;22;20051;-84
2022/10/11 09:40:17;;;;;;;11.15;2.15;;;11.70;99.90;;;;;;6240813;23;20107;-84
2022/10/11 09:42:42;;;;;;;8.52;1.88;;;12.00;99.90;;;;;;6243266;22;20008;-84
2022/10/11 09:45:19;;;;;;;8.85;1.40;;;12.20;99.90;;;;;;6239875;23;20047;-86
2022/10/11 09:47:47;;;;;;;13.68;2.08;;;12.50;99.90;;;;;;6241911;22;20042;-88
2022/10/11 09:50:24;;;;;;;11.48;1.77;;;12.70;99.90;;;;;;6240498;23;20016;-86
2022/10/11 09:53:03;;;;;;;12.15;1.92;;;13.10;99.90;;;;;;6241233;23;20012;-85
2022/10/11 09:55:42;;;;;;;9.05;1.50;;;13.30;99.90;;;;;;6242477;22;20322;-85
2022/10/11 09:58:30;;;;;;;8.82;1.60;;;13.50;99.90;;;;;;6242707;22;20067;-86
2022/10/11 10:01:00;;;;;;;14.35;2.80;;;13.60;99.90;;;;;;6241696;22;20442;-85
2022/10/11 10:03:32;;;;;;;10.98;2.08;;;13.80;99.90;;;;;;6242562;23;20016;-85
2022/10/11 10:06:25;;;;;;;9.30;1.52;;;13.80;99.90;;;;;;6240522;23;20289;-85
2022/10/11 10:08:50;;;;;;;15.40;2.50;;;13.80;99.90;;;;;;6234382;23;20458;-86
2022/10/11 10:11:17;;;;;;;9.20;1.80;;;13.80;99.90;;;;;;6242812;23;20023;-84
2022/10/11 10:13:55;;;;;;;13.73;1.98;;;13.90;99.90;;;;;;6240465;23;20456;-85
2022/10/11 10:16:27;;;;;;;11.15;1.63;;;14.00;99.90;;;;;;6240292;23;20016;-85
2022/10/11 10:19:03;;;;;;;10.27;1.80;;;14.20;99.90;;;;;;6215592;23;20023;-85
2022/10/11 10:21:33;;;;;;;12.00;1.63;;;14.30;99.90;;;;;;6242155;22;20441;-85
2022/10/11 10:24:04;;;;;;;15.23;2.10;;;14.40;99.90;;;;;;6240574;23;20481;-86
2022/10/11 10:26:31;;;;;;;9.77;1.60;;;14.50;99.90;;;;;;6242197;22;20018;-85
2022/10/11 10:28:56;;;;;;;13.35;1.42;;;14.60;99.90;;;;;;6240095;23;20051;-86
2022/10/11 10:31:48;;;;;;;7.70;1.45;;;14.70;99.90;;;;;;6242604;23;20630;-85
2022/10/11 10:34:28;;;;;;;9.73;2.13;;;14.80;99.90;;;;;;6228751;23;20079;-86
2022/10/11 10:37:17;;;;;;;14.20;1.88;;;14.90;99.90;;;;;;6240708;23;20071;-85
2022/10/11 10:40:21;;;;;;;11.55;1.92;;;15.00;99.90;;;;;;6242455;22;20055;-86
2022/10/11 10:42:47;;;;;;;11.20;2.25;;;15.10;99.90;;;;;;6117253;23;20020;-86
2022/10/11 10:45:17;;;;;;;9.32;2.40;;;15.30;99.90;;;;;;6240091;23;20013;-85
2022/10/11 10:47:54;;;;;;;15.27;2.42;;;15.40;99.90;;;;;;6240366;23;20023;-85
2022/10/11 10:50:49;;;;;;;14.32;1.77;;;15.50;99.90;;;;;;6241813;23;20055;-85
2022/10/11 10:53:43;;;;;;;11.13;1.75;;;15.60;99.90;;;;;;6240064;23;20012;-86
2022/10/11 10:56:20;;;;;;;12.18;1.77;;;15.50;99.90;;;;;;6241940;22;20016;-85
2022/10/11 10:59:11;;;;;;;8.27;1.65;;;15.40;99.90;;;;;;6241792;22;20008;-86
2022/10/11 11:02:03;;;;;;;9.27;1.60;;;15.40;99.90;;;;;;6241993;23;20283;-86
2022/10/11 11:04:32;;;;;;;12.23;3.60;;;15.50;99.90;;;;;;6242223;23;20016;-87
2022/10/11 11:07:29;;;;;;;12.55;3.10;;;15.70;99.90;;;;;;6239649;23;20008;-85
2022/10/11 11:10:10;;;;;;;7.90;1.58;;;15.90;99.90;;;;;;6239978;22;20016;-87
2022/10/11 11:13:00;;;;;;;12.38;1.70;;;16.10;99.90;;;;;;6241579;22;20024;-87
2022/10/11 11:15:43;;;;;;;10.52;2.30;;;16.20;99.90;;;;;;6240555;23;20088;-89
2022/10/11 11:18:31;;;;;;;9.55;1.60;;;16.40;99.90;;;;;;6215489;23;20024;-90
2022/10/11 11:21:14;;;;;;;10.35;1.38;;;16.70;99.90;;;;;;6240136;23;20016;-88
2022/10/11 11:23:55;;;;;;;15.85;2.95;;;16.80;99.90;;;;;;6242284;23;20087;-88
2022/10/11 11:26:49;;;;;;;10.13;1.40;;;16.90;99.90;;;;;;6239420;23;20095;-88
2022/10/11 11:29:25;;;;;;;8.73;1.23;;;17.00;99.90;;;;;;6239924;23;20059;-88
2022/10/11 11:32:19;;;;;;;10.07;1.77;;;17.00;99.90;;;;;;6241807;22;20019;-87
2022/10/11 11:35:00;;;;;;;8.43;1.45;;;17.10;99.90;;;;;;6242230;22;20307;-88
2022/10/11 11:37:37;;;;;;;8.80;1.50;;;17.20;99.90;;;;;;6242023;22;20241;-88
2022/10/11 11:40:26;;;;;;;9.73;1.70;;;17.30;99.90;;;;;;6240239;23;20016;-88
2022/10/11 11:43:00;;;;;;;6.75;1.38;;;17.40;99.90;;;;;;6241028;22;20044;-88
2022/10/11 11:45:46;;;;;;;8.38;1.65;;;17.30;99.90;;;;;;6238623;23;20077;-88
2022/10/11 11:48:18;;;;;;;7.40;1.60;;;17.40;99.90;;;;;;6241102;22;20008;-88
2022/10/11 11:50:55;;;;;;;13.00;1.70;;;17.40;99.90;;;;;;6238748;23;20020;-88
2022/10/11 11:53:55;;;;;;;9.77;1.50;;;17.50;99.90;;;;;;6240644;22;20454;-89
2022/10/11 11:56:45;;;;;;;12.25;1.92;;;17.60;99.90;;;;;;6212547;23;20020;-86
2022/10/11 11:59:28;;;;;;;8.15;1.67;;;17.70;99.90;;;;;;6213558;23;20039;-88
2022/10/11 12:02:23;;;;;;;10.13;1.30;;;17.80;99.90;;;;;;6238665;23;20389;-88
2022/10/11 12:04:49;;;;;;;9.05;1.55;;;17.90;99.90;;;;;;6241192;22;20051;-88
2022/10/11 12:07:19;;;;;;;9.15;1.17;;;18.10;99.90;;;;;;6240992;22;20019;-89
2022/10/11 12:09:49;;;;;;;10.32;1.75;;;18.30;99.90;;;;;;6240888;22;20051;-89
2022/10/11 12:12:33;;;;;;;10.77;1.60;;;18.30;99.90;;;;;;6240277;22;20520;-88
2022/10/11 12:15:25;;;;;;;9.97;1.57;;;18.30;99.90;;;;;;6241048;22;20370;-88
2022/10/11 12:17:54;;;;;;;8.73;1.83;;;18.10;99.90;;;;;;6226888;23;20326;-85
2022/10/11 12:20:30;;;;;;;9.95;1.75;;;17.90;99.90;;;;;;6240331;22;20103;-88
2022/10/11 12:23:00;;;;;;;7.90;1.38;;;17.80;99.90;;;;;;6238558;23;20066;-88
2022/10/11 12:25:25;;;;;;;9.35;1.40;;;17.70;99.90;;;;;;6239788;22;20095;-91
2022/10/11 12:27:56;;;;;;;8.23;1.55;;;17.60;99.90;;;;;;6240605;23;20043;-87
2022/10/11 12:30:47;;;;;;;5.90;1.20;;;17.70;99.90;;;;;;6213201;23;20051;-87
2022/10/11 12:33:15;;;;;;;8.73;1.33;;;17.80;99.90;;;;;;6241133;23;20039;-87
2022/10/11 12:35:53;;;;;;;8.57;1.60;;;17.90;99.90;;;;;;6238127;23;20020;-86
2022/10/11 12:38:23;;;;;;;9.30;2.13;;;17.90;99.90;;;;;;6238859;23;20020;-88
2022/10/11 12:40:55;;;;;;;11.00;1.50;;;17.90;99.90;;;;;;6212530;23;20031;-88
2022/10/11 12:43:31;;;;;;;8.57;1.27;;;18.10;99.90;;;;;;6238146;23;20023;-87
2022/10/11 12:46:29;;;;;;;11.27;1.60;;;18.20;99.90;;;;;;6239641;23;20017;-87
2022/10/11 12:49:12;;;;;;;12.75;2.30;;;18.40;99.90;;;;;;6239080;23;20031;-87
2022/10/11 12:52:02;;;;;;;10.93;2.22;;;18.60;99.90;;;;;;6239767;22;20008;-88
2022/10/11 12:54:54;;;;;;;6.53;1.13;;;18.60;99.90;;;;;;6176626;22;20837;-88
2022/10/11 12:57:47;;;;;;;9.10;1.50;;;18.50;99.90;;;;;;6240299;22;20334;-86
2022/10/11 13:00:22;;;;;;;6.97;1.02;;;18.50;99.50;;;;;;6240428;23;20016;-87
2022/10/11 13:02:48;;;;;;;6.57;1.15;;;18.40;99.90;;;;;;6240151;22;20485;-87
2022/10/11 13:05:23;;;;;;;9.32;1.48;;;18.30;99.90;;;;;;6240110;22;20020;-87
2022/10/11 13:07:51;;;;;;;9.57;1.05;;;18.30;99.90;;;;;;6238213;23;20027;-87
2022/10/11 13:10:23;;;;;;;12.13;1.45;;;18.30;99.90;;;;;;6239561;22;20016;-86